Time;durP1;ratioP1;P1;durP2;ratioP2;P2;SDS_P1;SDS_P2;PMS_P1;PMS_P2;Temp;Humidity;BMP_temperature;BMP_pressure;BME280_temperature;BME280_humidity;BME280_pressure;Samples;Min_cycle;Max_cycle;Signal;HPM_P1;HPM_P2
2024/01/30 00:07:16;;;;;;;15.73;10.70;;;;;;;21.31;48.42;102686.75;41493376;28;20183;-73
2024/01/30 00:27:16;;;;;;;16.25;10.60;;;;;;;21.23;48.54;102681.81;41481296;28;20053;-73
2024/01/30 00:47:17;;;;;;;16.02;10.90;;;;;;;21.20;48.42;102693.34;41505729;28;20048;-74
2024/01/30 01:07:19;;;;;;;16.48;10.90;;;;;;;21.14;48.23;102684.81;41483878;28;20068;-75
2024/01/30 01:27:21;;;;;;;15.35;10.70;;;;;;;21.03;48.36;102675.59;41509481;28;20057;-74
2024/01/30 01:47:21;;;;;;;17.08;10.68;;;;;;;21.05;48.11;102665.00;41516508;28;20038;-75
2024/01/30 02:07:21;;;;;;;12.95;9.80;;;;;;;21.02;47.83;102665.09;41499945;28;20046;-74
2024/01/30 02:27:22;;;;;;;15.85;10.75;;;;;;;20.94;47.66;102660.16;41506244;28;20052;-73
2024/01/30 02:47:22;;;;;;;15.77;10.30;;;;;;;20.84;47.85;102661.47;41507331;28;20041;-73
2024/01/30 03:07:23;;;;;;;13.82;10.05;;;;;;;20.84;47.85;102654.41;41499743;28;20038;-73
2024/01/30 03:27:24;;;;;;;13.45;10.05;;;;;;;20.81;47.62;102661.56;41493665;28;20038;-74
2024/01/30 03:47:24;;;;;;;13.10;9.90;;;;;;;20.77;46.94;102647.66;41482615;28;20409;-74
2024/01/30 04:07:24;;;;;;;14.75;9.82;;;;;;;20.65;47.04;102633.16;41489133;28;20053;-73
2024/01/30 04:27:25;;;;;;;15.30;10.63;;;;;;;20.62;47.15;102620.97;41491660;28;20049;-74
2024/01/30 04:47:25;;;;;;;14.60;9.68;;;;;;;20.59;47.30;102642.19;41492978;28;20064;-74
2024/01/30 05:07:26;;;;;;;14.30;10.63;;;;;;;20.63;47.05;102656.09;41479344;28;20038;-74
2024/01/30 05:27:26;;;;;;;19.20;11.13;;;;;;;21.30;45.68;102675.38;41462463;28;20049;-71
2024/01/30 05:47:28;;;;;;;19.48;13.98;;;;;;;20.85;44.03;102686.84;41290294;28;20046;-72
2024/01/30 06:07:28;;;;;;;33.20;15.18;;;;;;;21.27;44.17;102683.41;41359409;28;20041;-80
2024/01/30 06:27:30;;;;;;;28.65;15.80;;;;;;;21.29;42.21;102686.84;41542766;28;20396;-79
2024/01/30 06:47:30;;;;;;;24.25;14.70;;;;;;;21.50;42.80;102694.78;41566482;28;20040;-81
2024/01/30 07:07:32;;;;;;;29.25;15.02;;;;;;;21.57;42.22;102694.47;41558225;28;20048;-84
2024/01/30 07:27:36;;;;;;;27.88;14.00;;;;;;;21.51;42.58;102692.06;41511559;28;20136;-80
2024/01/30 07:47:36;;;;;;;24.50;13.60;;;;;;;21.62;43.11;102690.78;41500065;28;20570;-82
2024/01/30 08:07:47;;;;;;;18.73;12.90;;;;;;;21.69;43.01;102690.47;41523123;28;20129;-82
2024/01/30 08:27:48;;;;;;;19.23;12.73;;;;;;;21.74;42.65;102695.53;41508886;28;20073;-84
2024/01/30 08:47:48;;;;;;;21.33;12.70;;;;;;;21.82;42.51;102716.28;41525561;28;20046;-80
2024/01/30 09:07:49;;;;;;;16.30;11.20;;;;;;;21.78;42.76;102691.00;41521162;28;20041;-84
2024/01/30 09:27:49;;;;;;;18.38;11.25;;;;;;;21.86;42.62;102687.09;41527746;28;20049;-81
2024/01/30 09:47:50;;;;;;;17.17;11.43;;;;;;;21.91;42.34;102679.81;41557848;28;20049;-84
2024/01/30 10:07:56;;;;;;;17.23;11.75;;;;;;;22.02;42.05;102691.66;41560834;28;20038;-85
2024/01/30 10:27:58;;;;;;;15.18;10.52;;;;;;;22.18;41.87;102670.72;41564001;28;20038;-85
2024/01/30 10:48:02;;;;;;;14.15;10.27;;;;;;;22.13;42.11;102646.34;41582767;28;20172;-85
2024/01/30 11:08:13;;;;;;;12.10;9.35;;;;;;;22.57;40.86;102618.81;41407852;28;20039;-84
2024/01/30 11:28:17;;;;;;;11.52;9.02;;;;;;;22.75;40.84;102591.50;41389552;28;20042;-86
2024/01/30 11:48:18;;;;;;;11.48;8.18;;;;;;;22.86;40.74;102578.66;41411967;28;20049;-88
2024/01/30 12:08:19;;;;;;;9.73;7.93;;;;;;;22.91;40.61;102548.47;41417596;28;20105;-90
2024/01/30 12:28:20;;;;;;;9.48;6.65;;;;;;;22.71;37.48;102526.56;41415838;28;20100;-85
2024/01/30 12:48:22;;;;;;;7.65;5.95;;;;;;;23.03;38.59;102519.66;41433503;28;20045;-86
2024/01/30 13:08:22;;;;;;;6.85;5.53;;;;;;;23.22;39.00;102492.31;41511406;28;20048;-81
2024/01/30 13:28:26;;;;;;;6.53;5.35;;;;;;;23.23;39.33;102477.28;41585735;28;20061;-83
2024/01/30 13:48:27;;;;;;;9.98;4.93;;;;;;;23.23;39.82;102480.81;41630029;28;20067;-85
2024/01/30 14:08:28;;;;;;;7.10;5.28;;;;;;;23.06;40.32;102475.50;41636752;28;20050;-85
2024/01/30 14:28:28;;;;;;;7.15;4.90;;;;;;;22.78;40.93;102467.22;41679161;28;20041;-81
2024/01/30 14:48:30;;;;;;;114.40;23.80;;;;;;;22.63;41.05;102463.59;41594205;28;20045;-81
2024/01/30 15:08:32;;;;;;;70.47;17.48;;;;;;;22.41;41.36;102461.19;41690832;28;20096;-83
2024/01/30 15:28:40;;;;;;;51.60;14.05;;;;;;;22.17;41.48;102460.56;41720458;28;20284;-80
2024/01/30 15:48:40;;;;;;;21.70;7.68;;;;;;;20.92;34.32;102467.97;41630442;28;20140;-77
2024/01/30 16:08:41;;;;;;;24.55;8.25;;;;;;;21.81;39.38;102474.59;41588259;28;20042;-76
2024/01/30 16:28:43;;;;;;;21.40;8.30;;;;;;;21.79;40.97;102479.94;41610144;28;24541;-76
2024/01/30 16:48:43;;;;;;;15.90;7.05;;;;;;;21.80;41.46;102472.88;41573609;28;20045;-78
2024/01/30 17:08:43;;;;;;;39.47;19.92;;;;;;;21.88;42.35;102474.22;41588037;28;20045;-82
2024/01/30 17:28:44;;;;;;;32.25;15.90;;;;;;;21.88;42.50;102466.31;41577229;28;20046;-79
2024/01/30 17:48:44;;;;;;;27.15;14.05;;;;;;;21.80;42.78;102457.94;41542026;28;20056;-79
2024/01/30 18:08:45;;;;;;;22.83;12.38;;;;;;;21.70;43.04;102456.63;41549472;28;20041;-76
2024/01/30 18:28:50;;;;;;;21.08;11.38;;;;;;;21.71;43.22;102446.00;41497706;28;20053;-73
2024/01/30 18:48:51;;;;;;;21.13;11.88;;;;;;;21.88;43.69;102449.63;41494536;28;20040;-74
2024/01/30 19:08:52;;;;;;;22.80;10.98;;;;;;;21.80;43.66;102443.88;41527511;28;20532;-75
2024/01/30 19:28:53;;;;;;;19.48;10.70;;;;;;;21.67;43.53;102452.34;41503290;28;20076;-75
2024/01/30 19:48:54;;;;;;;19.33;9.63;;;;;;;21.66;43.59;102444.53;41519510;28;20090;-76
2024/01/30 20:08:55;;;;;;;16.60;9.75;;;;;;;21.53;45.31;102446.84;41497121;28;20045;-72
2024/01/30 20:28:56;;;;;;;17.10;9.65;;;;;;;21.48;44.50;102454.94;41500838;28;20446;-72
2024/01/30 20:48:57;;;;;;;14.90;9.80;;;;;;;21.48;44.61;102446.19;41480335;28;20513;-74
2024/01/30 21:08:59;;;;;;;22.15;12.02;;;;;;;21.23;43.26;102447.31;41476235;28;20034;-73
2024/01/30 21:29:00;;;;;;;16.38;11.25;;;;;;;21.15;43.53;102436.28;41491690;28;20037;-73
2024/01/30 21:49:00;;;;;;;15.38;10.30;;;;;;;21.13;43.82;102425.81;41502977;28;20413;-74
2024/01/30 22:09:01;;;;;;;14.68;10.15;;;;;;;21.14;43.45;102414.34;41501642;28;20053;-74
2024/01/30 22:29:01;;;;;;;14.55;10.63;;;;;;;21.05;43.48;102404.22;41503068;28;20042;-74
2024/01/30 22:49:02;;;;;;;14.13;10.68;;;;;;;21.01;43.90;102403.50;41503317;28;20070;-73
2024/01/30 23:09:02;;;;;;;11.82;9.85;;;;;;;20.99;43.35;102394.81;41487181;28;20038;-72
2024/01/30 23:29:04;;;;;;;13.63;10.25;;;;;;;20.98;43.76;102386.97;41496254;28;20089;-72
2024/01/30 23:49:05;;;;;;;13.90;10.25;;;;;;;20.90;44.19;102359.22;41499576;28;20046;-73
